Nearby METAR Reports

 

KBED - Bedford, Massachusetts, USA
Distance from station: ENE 12mi, 20km
Updated: Thu, 24-Sep-2020 5:51am EDT
Clear
Clear
 Wind from calm
Wind: Calm
Temperature: 50°F , 10°C
Dew Point: 46°F , 8°C
Humidity: 88%
Barometer: 29.89 inHg , 1012.2 hPa
Clouds: Clear
Visibility: 10 miles , 16 km
2020/09/24 09:51 KBED 240951Z AUTO 00000KT 10SM CLR 10/08 A2989 RMK AO2 SLP133 T01000083
KFIT - Fitchburg, Massachusetts, USA
Distance from station: NW 15mi, 24km
Updated: Thu, 24-Sep-2020 5:52am EDT
Clear
Clear
 Wind from varies
Wind: varies 6 mph , 9 km/h
Temperature: 54°F , 12°C
Dew Point: 52°F , 11°C
Humidity: 94%
Barometer: 29.91 inHg , 1012.9 hPa
Clouds: Clear
Visibility: 10 miles , 16 km
2020/09/24 09:52 KFIT 240952Z AUTO VRB05KT 10SM CLR 12/11 A2991 RMK AO2 SLP130 T01220106
 
KORH - Worcester, Massachusetts, USA
Distance from station: WSW 20mi, 32km
Updated: Thu, 24-Sep-2020 5:54am EDT
Clear
Clear
 Wind from WNW
Wind: WNW 10 mph , 17 km/h
Temperature: 57°F , 14°C
Dew Point: 52°F , 11°C
Humidity: 82%
Barometer: 29.93 inHg , 1013.5 hPa
Clouds: Clear
Visibility: 10 miles , 16 km
2020/09/24 09:54 KORH 240954Z AUTO 29009KT 10SM CLR 14/11 A2993 RMK AO2 SLP133 T01390106
KOWD - Norwood, Massachusetts, USA
Distance from station: SE 24mi, 39km
Updated: Thu, 24-Sep-2020 5:53am EDT
Fog, Overcast
Fog, Overcast
 Wind from calm
Wind: Calm
Temperature: 48°F , 9°C
Dew Point: 45°F , 7°C
Humidity: 87%
Barometer: 29.90 inHg , 1012.5 hPa
Summary: Fog
Clouds: Overcast
Visibility: 1/4 mile , 0.4 km
Cloud details: Overcast 200 ft
2020/09/24 09:53 KOWD 240953Z AUTO 00000KT 1/4SM FG VV002 09/07 A2990 RMK AO2 SLP123 T00890072
 
KMQE - East Milton, Massachusetts, USA
Distance from station: ESE 25mi, 40km
Updated: Thu, 24-Sep-2020 5:51am EDT

 Wind from WNW
Wind: WNW 10 mph , 17 km/h
Temperature: 57°F , 14°C
Dew Point: 52°F , 11°C
Humidity: 82%
Barometer: 29.89 inHg , 1012.2 hPa
2020/09/24 09:51 KMQE 240951Z AUTO 29009KT 14/11 A2989 RMK AO1 SLP130 T01390111
KASH - Nashua/Boire Fld, New Hampshire, USA
Distance from station: N 26mi, 42km
Updated: Thu, 24-Sep-2020 5:56am EDT
Clear
Clear
 Wind from NW
Wind: NW 6 mph , 9 km/h
Temperature: 50°F , 10°C
Wind Chill: 48°F , 9°C
Dew Point: 50°F , 10°C
Humidity: 100%
Barometer: 29.90 inHg , 1012.5 hPa
Clouds: Clear
Visibility: 10 miles , 16 km
2020/09/24 09:56 KASH 240956Z AUTO 31005KT 10SM CLR 10/10 A2990 RMK AO2 SLP130 T01000100
 
KBOS - Boston, Massachusetts, USA
Distance from station: E 26mi, 42km
Updated: Thu, 24-Sep-2020 5:54am EDT
Few Clouds
Few Clouds
 Wind from W
Wind: W 8 mph , 13 km/h
Temperature: 61°F , 16°C
Dew Point: 52°F , 11°C
Humidity: 72%
Barometer: 29.89 inHg , 1012.2 hPa
Clouds: Few Clouds
Visibility: 10 miles , 16 km
Cloud details: Few Clouds 25000 ft
2020/09/24 09:54 KBOS 240954Z 28007KT 10SM FEW250 16/11 A2989 RMK AO2 SLP122 T01610111
KLWM - Lawrence, Massachusetts, USA
Distance from station: NE 29mi, 47km
Updated: Thu, 24-Sep-2020 5:54am EDT
Clear
Clear
 Wind from SSW
Wind: SSW 3 mph , 6 km/h
Temperature: 54°F , 12°C
Dew Point: 52°F , 11°C
Humidity: 94%
Barometer: 29.91 inHg , 1012.9 hPa
Clouds: Clear
Visibility: 10 miles , 16 km
2020/09/24 09:54 KLWM 240954Z AUTO 20003KT 10SM CLR 12/11 A2991 RMK AO2 SLP127 T01220111
 
KBVY - Beverly, Massachusetts, USA
Distance from station: ENE 33mi, 54km
Updated: Thu, 24-Sep-2020 5:53am EDT
Clear
Clear
 Wind from W
Wind: W 6 mph , 9 km/h
Temperature: 57°F , 14°C
Dew Point: 52°F , 11°C
Humidity: 82%
Barometer: 29.88 inHg , 1011.9 hPa
Clouds: Clear
Visibility: 10 miles , 16 km
2020/09/24 09:53 KBVY 240953Z AUTO 27005KT 10SM CLR 14/11 A2988 RMK AO2 SLP113 T01440111
KSFZ - Pawtucket, Rhode Island, USA
Distance from station: S 34mi, 54km
Updated: Thu, 24-Sep-2020 5:56am EDT
Clear
Clear
 Wind from W
Wind: W 5 mph , 7 km/h
Temperature: 55°F , 13°C
Dew Point: 54°F , 12°C
Humidity: 94%
Barometer: 29.92 inHg , 1013.2 hPa
Clouds: Clear
Visibility: 10 miles , 16 km
2020/09/24 09:56 KSFZ 240956Z AUTO 27004KT 10SM CLR 13/12 A2992 RMK AO2 SLP076 T01330122
 
KAFN - Jaffrey, New Hampshire, USA
Distance from station: NW 36mi, 59km
Updated: Thu, 24-Sep-2020 5:52am EDT
Clear
Clear
 Wind from S
Wind: S 3 mph , 6 km/h
Temperature: 50°F , 10°C
Dew Point: 46°F , 8°C
Humidity: 88%
Barometer: 29.92 inHg , 1013.2 hPa
Clouds: Clear
Visibility: 9 miles , 14 km
2020/09/24 09:52 KAFN 240952Z AUTO 17003KT 9SM CLR 10/08 A2992 RMK AO2 SLP136 T01000083
KMHT - Manchester, New Hampshire, USA
Distance from station: N 37mi, 59km
Updated: Thu, 24-Sep-2020 5:53am EDT
Few Clouds
Few Clouds
 Wind from calm
Wind: Calm
Temperature: 54°F , 12°C
Dew Point: 46°F , 8°C
Humidity: 77%
Barometer: 29.88 inHg , 1011.9 hPa
Clouds: Few Clouds
Visibility: 10 miles , 16 km
Cloud details: Few Clouds 25000 ft
2020/09/24 09:53 KMHT 240953Z 00000KT 10SM FEW250 12/08 A2988 RMK AO2 SLP128 T01170083
 
KORE - Orange, Massachusetts, USA
Distance from station: WNW 40mi, 65km
Updated: Thu, 24-Sep-2020 6:05am EDT
Mist, Clear
Mist, Clear
 Wind from calm
Wind: Calm
Temperature: 46°F , 8°C
Dew Point: 45°F , 7°C
Humidity: 93%
Barometer: 29.94 inHg , 1013.9 hPa
Summary: Mist
Clouds: Clear
Visibility: 1 1/4 miles , 2 km
2020/09/24 10:05 KORE 241005Z AUTO 00000KT 1 1/4SM BR CLR 08/07 A2994 RMK AO2 T00780072
KTAN - Taunton, Massachusetts, USA
Distance from station: SE 45mi, 72km
Updated: Thu, 24-Sep-2020 5:52am EDT
Mist, Clear
Mist, Clear
 Wind from calm
Wind: Calm
Temperature: 46°F , 8°C
Dew Point: 45°F , 7°C
Humidity: 93%
Barometer: 29.90 inHg , 1012.5 hPa
Summary: Mist
Clouds: Clear
Visibility: 4 miles , 6 km
2020/09/24 09:52 KTAN 240952Z AUTO 00000KT 4SM BR CLR 08/07 A2990 RMK AO2 SLP125 T00830067
 
KPVD - Providence/Green, Rhode Island, USA
Distance from station: S 48mi, 77km
Updated: Thu, 24-Sep-2020 5:51am EDT
Few Clouds
Few Clouds
 Wind from W
Wind: W 5 mph , 7 km/h
Temperature: 55°F , 13°C
Dew Point: 54°F , 12°C
Humidity: 94%
Barometer: 29.91 inHg , 1012.9 hPa
Clouds: Few Clouds
Visibility: 10 miles , 16 km
Cloud details: Few Clouds 30000 ft
2020/09/24 09:51 KPVD 240951Z 26004KT 10SM FEW300 13/12 A2991 RMK AO2 SLP127 T01330117
KGHG - Marshfield, Massachusetts, USA
Distance from station: ESE 49mi, 79km
Updated: Thu, 24-Sep-2020 5:55am EDT
Clear
Clear
 Wind from calm
Wind: Calm
Temperature: 57°F , 14°C
Dew Point: 55°F , 13°C
Humidity: 94%
Barometer: 29.89 inHg , 1012.2 hPa
Clouds: Clear
Visibility: 10 miles , 16 km
2020/09/24 09:55 KGHG 240955Z AUTO 00000KT 10SM CLR 14/13 A2989 RMK AO2
 
KEEN - Keene/Dillant, New Hampshire, USA
Distance from station: NW 50mi, 81km
Updated: Thu, 24-Sep-2020 5:56am EDT
Fog, Overcast
Fog, Overcast
 Wind from S
Wind: S 3 mph , 6 km/h
Temperature: 43°F , 6°C
Dew Point: 43°F , 6°C
Humidity: 100%
Barometer: 29.93 inHg , 1013.5 hPa
Summary: Fog
Clouds: Overcast
Visibility: 1/4 mile , 0.4 km
Cloud details: Overcast 100 ft
2020/09/24 09:56 KEEN 240956Z AUTO 18003KT 1/4SM FG OVC001 06/06 A2993 RMK AO2 SLP139 T00560056 PNO $